This is the latest recevied weather packets stored in our database for station/object KA3ZXO. If no packets are shown the sender has not sent any weather packets the latest 1 day(s).
| Time | Temp. | Humidity | Pressure | Rain* | Wind** | Luminosity | Snow |
|---|---|---|---|---|---|---|---|
| 1836274377 | 19.44° C | 99% | 1017.8 hPa | 0 mm | 0 m/s | 0 W/m² | - |
| 1836274230 | 18.89° C | 99% | 1017.8 hPa | 0 mm | 0 m/s | 0 W/m² | - |
| 1778042617 | 21.11° C | 65% | 1012.3 hPa | 0 mm | 0 m/s | 0 W/m² | - |
| 1778042016 | 21.11° C | 64% | 1012 hPa | 0 mm | 0.89 m/s, 144° | 0 W/m² | - |
| 1778041414 | 21.67° C | 62% | 1012.1 hPa | 0 mm | 0 m/s | 0 W/m² | - |
| 1778040809 | 21.67° C | 62% | 1012 hPa | 0 mm | 0.45 m/s, 177° | 0 W/m² | - |
| 1778040203 | 21.67° C | 61% | 1012.1 hPa | 0 mm | 0.45 m/s, 184° | 0 W/m² | - |
| 1778039602 | 21.67° C | 60% | 1012 hPa | 0 mm | 0 m/s | 0 W/m² | - |
| 1778039003 | 21.67° C | 58% | 1012.1 hPa | 0 mm | 0 m/s | 0 W/m² | - |
| 1778038402 | 22.22° C | 56% | 1012.1 hPa | 0 mm | 0.45 m/s, 187° | 0 W/m² | - |
| 1778037801 | 22.22° C | 55% | 1012 hPa | 0 mm | 0 m/s | 0 W/m² | - |
| 1778037202 | 22.22° C | 54% | 1012.1 hPa | 0 mm | 0.45 m/s, 180° | 0 W/m² | - |
| 1778036597 | 22.22° C | 53% | 1012 hPa | 0 mm | 0 m/s | 0 W/m² | - |
| 1778035995 | 22.22° C | 53% | 1012.1 hPa | 0 mm | 0 m/s | 0 W/m² | - |
| 1778035395 | 22.78° C | 52% | 1012.2 hPa | 0 mm | 0.45 m/s, 190° | 0 W/m² | - |
| 1778034794 | 22.78° C | 52% | 1012.2 hPa | 0 mm | 0.89 m/s, 124° | 0 W/m² | - |
| 1778034194 | 22.78° C | 51% | 1012.3 hPa | 0 mm | 0 m/s | 0 W/m² | - |
| 1778033589 | 22.78° C | 50% | 1012.3 hPa | 0 mm | 0 m/s | 0 W/m² | - |
| 1778032989 | 23.33° C | 49% | 1012.2 hPa | 0 mm | 0.45 m/s, 177° | 0 W/m² | - |
| 1778032384 | 23.33° C | 49% | 1011.9 hPa | 0 mm | 0.89 m/s, 187° | 0 W/m² | - |
| 1778031783 | 23.33° C | 48% | 1011.9 hPa | 0 mm | 0.45 m/s, 167° | 0 W/m² | - |
| 1778031183 | 23.33° C | 48% | 1011.9 hPa | 0 mm | 0.45 m/s, 187° | 0 W/m² | - |
| 1778030582 | 23.89° C | 47% | 1011.8 hPa | 0 mm | 0 m/s | 0 W/m² | - |
| 1778029981 | 23.89° C | 47% | 1011.6 hPa | 0 mm | 0 m/s | 0 W/m² | - |
| 1778029377 | 23.89° C | 45% | 1011.5 hPa | 0 mm | 0 m/s | 0 W/m² | - |
* Rain latest hour (hover to see other rain measurements)
** Current wind speed in m/s (hover to see current wind gust speed)